Terminal Aerodrome Forecast
Issued by NWS

Home | Current Version | Previous Version | Graphics & Text | Print | Product List | Glossary On
Versions: 1 2 3 4 5 6 7 8 9 10 11 12 13 14 15 16 17 18 19 20 21 22 23 24 25 26 27
886
FTUS43 KLOT 210258 AAA
TAFMDW
TAF AMD
KMDW 210258Z 2103/2124 02009KT P6SM FEW060 BKN250
     FM210600 35007KT P6SM SCT120 BKN250
     FM211500 34010KT P6SM BKN120
     FM211900 04012KT P6SM SCT040 BKN120=

USA.gov is the U.S. government's official web portal to all federal, state and local government web resources and services.